Time;durP1;ratioP1;P1;durP2;ratioP2;P2;SDS_P1;SDS_P2;PMS_P1;PMS_P2;Temp;Humidity;BMP_temperature;BMP_pressure;BME280_temperature;BME280_humidity;BME280_pressure;Samples;Min_cycle;Max_cycle;Signal;HPM_P1;HPM_P2
2023/03/27 00:01:10;;;;;;;;;;;;;;;21.54;60.04;98028.50;7315217;19;129201;-41
2023/03/27 00:03:36;;;;;;;;;;;;;;;21.54;60.18;98033.72;7316048;19;128954;-41
2023/03/27 00:06:17;;;;;;;;;;;;;;;21.47;62.10;98021.56;7314022;19;129708;-41
2023/03/27 00:08:46;;;;;;;;;;;;;;;21.56;61.98;98037.00;7312782;19;129433;-41
2023/03/27 00:11:13;;;;;;;;;;;;;;;21.56;61.13;98036.16;7316098;19;129262;-40
2023/03/27 00:13:39;;;;;;;;;;;;;;;21.55;61.72;98040.56;7314797;19;130353;-41
2023/03/27 00:16:04;;;;;;;;;;;;;;;21.53;62.02;98042.56;7315769;19;128772;-41
2023/03/27 00:18:30;;;;;;;;;;;;;;;21.54;61.68;98038.97;7311809;19;129476;-40
2023/03/27 00:20:59;;;;;;;;;;;;;;;21.50;61.68;98045.53;7315619;19;129744;-40
2023/03/27 00:23:25;;;;;;;;;;;;;;;21.53;62.26;98046.97;7315511;19;129340;-40
2023/03/27 00:25:51;;;;;;;;;;;;;;;21.54;61.84;98044.19;7314942;19;129036;-41
2023/03/27 00:28:17;;;;;;;;;;;;;;;21.58;63.12;98045.47;7312813;19;129213;-41
2023/03/27 00:30:43;;;;;;;;;;;;;;;21.53;62.11;98053.03;7314793;19;129417;-41
2023/03/27 00:33:12;;;;;;;;;;;;;;;21.56;61.55;98055.28;7315188;19;128988;-42
2023/03/27 00:35:37;;;;;;;;;;;;;;;21.55;60.93;98055.47;7314582;19;129153;-41
2023/03/27 00:38:03;;;;;;;;;;;;;;;21.57;61.74;98059.53;7312448;19;129128;-41
2023/03/27 00:40:28;;;;;;;;;;;;;;;21.56;61.52;98070.16;7313811;19;129637;-42
2023/03/27 00:42:56;;;;;;;;;;;;;;;21.58;62.19;98073.41;7315371;19;128950;-41
2023/03/27 00:45:25;;;;;;;;;;;;;;;21.59;61.86;98083.69;7313796;19;128875;-40
2023/03/27 00:48:02;;;;;;;;;;;;;;;21.60;61.17;98095.78;7313740;19;129421;-42
2023/03/27 00:50:33;;;;;;;;;;;;;;;21.58;62.06;98089.94;7313223;19;129219;-40
2023/03/27 00:53:07;;;;;;;;;;;;;;;21.59;62.09;98104.63;7314580;19;129165;-39
2023/03/27 00:55:35;;;;;;;;;;;;;;;21.61;61.81;98101.81;7315118;19;128904;-40
2023/03/27 00:58:08;;;;;;;;;;;;;;;21.63;61.74;98108.53;7313603;19;129649;-41
2023/03/27 01:00:34;;;;;;;;;;;;;;;21.62;61.79;98104.25;7313012;19;129865;-41
2023/03/27 01:03:00;;;;;;;;;;;;;;;21.58;61.28;98116.09;7314664;19;128989;-41
2023/03/27 01:05:26;;;;;;;;;;;;;;;21.63;62.70;98105.91;7313590;19;129356;-41
2023/03/27 01:07:52;;;;;;;;;;;;;;;21.61;62.58;98115.72;7313090;19;128922;-41
2023/03/27 01:10:18;;;;;;;;;;;;;;;21.64;62.21;98132.84;7314040;19;130232;-41
2023/03/27 01:12:47;;;;;;;;;;;;;;;21.61;61.87;98134.03;7311183;19;129542;-40
2023/03/27 01:15:22;;;;;;;;;;;;;;;21.55;61.71;98120.84;7315145;19;128979;-40
2023/03/27 01:17:51;;;;;;;;;;;;;;;21.63;62.06;98153.00;7313568;19;129376;-40
2023/03/27 01:20:31;;;;;;;;;;;;;;;21.62;62.42;98151.34;7312314;19;129225;-41
2023/03/27 01:23:12;;;;;;;;;;;;;;;21.63;62.26;98153.00;7314307;19;129137;-40
2023/03/27 01:25:41;;;;;;;;;;;;;;;21.56;61.76;98152.06;7313553;19;129318;-41
2023/03/27 01:28:13;;;;;;;;;;;;;;;21.62;61.39;98161.81;7311503;19;129193;-41
2023/03/27 01:30:41;;;;;;;;;;;;;;;21.65;62.39;98176.34;7313012;19;129692;-40
2023/03/27 01:33:06;;;;;;;;;;;;;;;21.55;62.14;98145.16;7313293;19;129322;-42
2023/03/27 01:35:41;;;;;;;;;;;;;;;21.65;62.39;98176.34;7313747;19;128962;-42
2023/03/27 01:38:07;;;;;;;;;;;;;;;21.67;62.41;98183.03;7310982;19;129077;-42
2023/03/27 01:40:40;;;;;;;;;;;;;;;21.70;62.64;98189.72;7312494;19;129100;-40
2023/03/27 01:43:14;;;;;;;;;;;;;;;21.62;61.53;98189.75;7312620;19;129542;-40
2023/03/27 01:45:46;;;;;;;;;;;;;;;21.65;61.59;98198.06;7312206;19;129017;-41
2023/03/27 01:48:17;;;;;;;;;;;;;;;21.65;62.45;98200.69;7311987;19;129304;-41
2023/03/27 01:50:51;;;;;;;;;;;;;;;21.66;61.73;98207.56;7311833;19;129375;-42
2023/03/27 01:53:20;;;;;;;;;;;;;;;21.64;61.95;98217.38;7313652;19;129038;-42
2023/03/27 01:55:50;;;;;;;;;;;;;;;21.63;61.55;98217.53;7311654;19;128868;-41
2023/03/27 01:58:18;;;;;;;;;;;;;;;21.66;62.17;98225.88;7312132;19;129082;-40
2023/03/27 02:00:45;;;;;;;;;;;;;;;21.66;62.43;98233.72;7309941;19;130587;-41
2023/03/27 02:03:19;;;;;;;;;;;;;;;21.63;62.14;98241.09;7312992;19;129231;-41
2023/03/27 02:05:48;;;;;;;;;;;;;;;21.58;61.97;98223.31;7311576;19;129916;-40
2023/03/27 02:08:16;;;;;;;;;;;;;;;21.70;62.43;98247.25;7309526;19;129858;-40
2023/03/27 02:10:47;;;;;;;;;;;;;;;21.51;61.99;98230.19;7311880;19;131513;-40
2023/03/27 02:13:27;;;;;;;;;;;;;;;21.62;62.14;98261.19;7312642;19;129329;-40
2023/03/27 02:15:53;;;;;;;;;;;;;;;21.62;62.78;98260.38;7311875;19;128796;-41
2023/03/27 02:18:26;;;;;;;;;;;;;;;21.59;62.63;98269.38;7309446;19;129455;-40
2023/03/27 02:20:52;;;;;;;;;;;;;;;21.59;62.21;98271.16;7312330;19;130681;-40
2023/03/27 02:23:17;;;;;;;;;;;;;;;21.58;62.06;98283.47;7314641;19;130856;-41
2023/03/27 02:25:47;;;;;;;;;;;;;;;21.46;62.06;98256.06;7317963;19;129123;-39
2023/03/27 02:28:33;;;;;;;;;;;;;;;21.60;62.30;98291.13;7317107;19;129109;-41
2023/03/27 02:31:17;;;;;;;;;;;;;;;21.60;62.38;98288.50;7317487;19;129256;-41
2023/03/27 02:34:06;;;;;;;;;;;;;;;21.61;62.48;98301.41;7319763;19;131195;-41
2023/03/27 02:36:53;;;;;;;;;;;;;;;21.63;62.29;98309.09;7317681;19;128979;-41
2023/03/27 02:39:32;;;;;;;;;;;;;;;21.61;62.15;98317.09;7318210;19;130803;-41
2023/03/27 02:42:07;;;;;;;;;;;;;;;21.59;61.61;98318.25;7318827;19;129552;-40
2023/03/27 02:44:39;;;;;;;;;;;;;;;21.62;62.70;98334.41;7318587;19;129357;-41
2023/03/27 02:47:07;;;;;;;;;;;;;;;21.64;62.35;98342.91;7315762;19;128974;-40
2023/03/27 02:49:42;;;;;;;;;;;;;;;21.64;62.15;98342.91;7319012;19;129240;-40
2023/03/27 02:52:11;;;;;;;;;;;;;;;21.67;62.41;98353.03;7315915;19;130356;-40
2023/03/27 02:54:39;;;;;;;;;;;;;;;21.66;62.34;98354.03;7317671;19;129367;-41
2023/03/27 02:57:07;;;;;;;;;;;;;;;21.65;62.07;98354.19;7318073;19;128964;-41
2023/03/27 02:59:44;;;;;;;;;;;;;;;21.68;62.13;98365.13;7317232;19;129834;-42
2023/03/27 03:02:19;;;;;;;;;;;;;;;21.68;61.85;98374.78;7317819;19;129188;-42
2023/03/27 03:04:55;;;;;;;;;;;;;;;21.67;61.71;98373.97;7317631;19;128977;-39
2023/03/27 03:07:23;;;;;;;;;;;;;;;21.64;62.05;98376.91;7315060;19;129822;-39
2023/03/27 03:09:49;;;;;;;;;;;;;;;21.67;61.71;98378.38;7318251;19;130126;-40
2023/03/27 03:12:15;;;;;;;;;;;;;;;21.68;61.61;98386.03;7317993;19;129251;-39
2023/03/27 03:14:44;;;;;;;;;;;;;;;21.67;62.27;98400.13;7315280;19;129981;-41
2023/03/27 03:17:10;;;;;;;;;;;;;;;21.63;61.57;98398.84;7315483;19;129233;-41
2023/03/27 03:19:36;;;;;;;;;;;;;;;21.68;61.88;98408.78;7318501;19;129131;-40
2023/03/27 03:22:02;;;;;;;;;;;;;;;21.69;62.12;98413.03;7318116;19;129706;-40
2023/03/27 03:24:28;;;;;;;;;;;;;;;21.66;61.59;98422.03;7314692;19;130392;-40
2023/03/27 03:26:54;;;;;;;;;;;;;;;21.64;61.58;98421.38;7315196;19;129497;-41
2023/03/27 03:29:20;;;;;;;;;;;;;;;21.63;62.36;98430.22;7315174;19;129113;-40
2023/03/27 03:31:45;;;;;;;;;;;;;;;21.60;61.71;98430.53;7317096;19;130060;-40
2023/03/27 03:34:12;;;;;;;;;;;;;;;21.36;61.04;98414.91;7315639;19;129027;-42
2023/03/27 03:36:37;;;;;;;;;;;;;;;21.47;62.17;98453.78;7314989;19;129366;-40
2023/03/27 03:39:04;;;;;;;;;;;;;;;21.48;60.95;98458.06;7316049;19;129051;-41
2023/03/27 03:41:29;;;;;;;;;;;;;;;21.43;60.89;98462.13;7316403;19;129405;-40
2023/03/27 03:43:55;;;;;;;;;;;;;;;21.65;60.04;98469.28;7314999;19;129592;-41
2023/03/27 03:46:20;;;;;;;;;;;;;;;22.00;58.67;98473.31;7314590;19;129788;-41
2023/03/27 03:48:46;;;;;;;;;;;;;;;22.31;58.11;98482.00;7314087;19;129175;-40
2023/03/27 03:51:11;;;;;;;;;;;;;;;22.51;56.92;98489.25;7314367;19;130200;-39
2023/03/27 03:53:37;;;;;;;;;;;;;;;22.65;56.24;98487.72;7316141;19;129304;-41
2023/03/27 03:56:03;;;;;;;;;;;;;;;22.77;56.26;98491.59;7314578;19;129748;-41
2023/03/27 03:58:28;;;;;;;;;;;;;;;22.92;56.00;98502.97;7314324;19;130687;-41
2023/03/27 04:00:54;;;;;;;;;;;;;;;22.99;55.34;98498.66;7314717;19;129550;-41
2023/03/27 04:03:19;;;;;;;;;;;;;;;23.09;54.73;98507.06;7316338;19;128928;-40
2023/03/27 04:05:44;;;;;;;;;;;;;;;23.03;54.70;98494.69;7315406;19;130530;-41
2023/03/27 04:08:12;;;;;;;;;;;;;;;23.24;55.12;98518.44;7315112;19;129592;-40
2023/03/27 04:10:38;;;;;;;;;;;;;;;23.27;54.58;98523.34;7313292;19;131455;-41
2023/03/27 04:13:04;;;;;;;;;;;;;;;23.36;54.83;98527.56;7314525;19;129253;-41
2023/03/27 04:15:30;;;;;;;;;;;;;;;23.46;53.99;98528.13;7315154;19;129232;-40
2023/03/27 04:17:56;;;;;;;;;;;;;;;23.50;53.89;98542.53;7314899;19;129719;-41
2023/03/27 04:20:25;;;;;;;;;;;;;;;23.61;53.57;98546.53;7314599;19;129588;-41
2023/03/27 04:22:53;;;;;;;;;;;;;;;23.67;53.66;98556.31;7314706;19;129030;-42
2023/03/27 04:25:21;;;;;;;;;;;;;;;23.71;53.83;98550.53;7314898;19;128897;-42
2023/03/27 04:27:50;;;;;;;;;;;;;;;23.77;53.11;98556.84;7314680;19;129429;-41
2023/03/27 04:30:15;;;;;;;;;;;;;;;23.79;53.72;98555.69;7314093;19;129432;-41
2023/03/27 04:32:42;;;;;;;;;;;;;;;23.84;52.95;98566.47;7315441;19;129512;-40
2023/03/27 04:35:09;;;;;;;;;;;;;;;23.83;53.17;98556.97;7315168;19;128779;-41
2023/03/27 04:37:39;;;;;;;;;;;;;;;23.81;53.43;98561.59;7311415;19;130917;-42
2023/03/27 04:40:05;;;;;;;;;;;;;;;23.78;53.61;98569.84;7312516;19;129613;-41
2023/03/27 04:42:31;;;;;;;;;;;;;;;23.70;53.05;98580.38;7312625;19;129341;-41
2023/03/27 04:44:56;;;;;;;;;;;;;;;23.55;53.98;98579.53;7313660;19;129240;-41
2023/03/27 04:47:22;;;;;;;;;;;;;;;23.44;54.16;98587.00;7312775;19;129284;-40
2023/03/27 04:49:49;;;;;;;;;;;;;;;23.31;54.63;98599.88;7314940;19;129127;-40
2023/03/27 04:52:17;;;;;;;;;;;;;;;23.17;55.31;98601.44;7308466;19;129524;-42
2023/03/27 04:54:43;;;;;;;;;;;;;;;22.95;55.34;98603.03;7311689;19;129651;-41
2023/03/27 04:57:09;;;;;;;;;;;;;;;22.87;56.09;98615.38;7307890;19;131403;-41
2023/03/27 04:59:35;;;;;;;;;;;;;;;22.75;56.19;98616.72;7315017;19;129546;-42
2023/03/27 05:02:02;;;;;;;;;;;;;;;22.62;56.81;98611.22;7315181;19;129163;-41
2023/03/27 05:04:29;;;;;;;;;;;;;;;22.56;56.43;98632.84;7309150;19;129180;-40
2023/03/27 05:06:58;;;;;;;;;;;;;;;22.59;56.46;98632.50;7306921;19;130872;-40
2023/03/27 05:09:23;;;;;;;;;;;;;;;22.57;56.93;98634.47;7313169;19;129217;-41
2023/03/27 05:11:49;;;;;;;;;;;;;;;22.55;57.06;98642.50;7309775;19;129771;-42
2023/03/27 05:14:19;;;;;;;;;;;;;;;22.51;57.24;98648.22;7310041;19;129520;-42
2023/03/27 05:16:44;;;;;;;;;;;;;;;22.35;57.26;98632.53;7311138;19;130094;-41
2023/03/27 05:19:10;;;;;;;;;;;;;;;22.41;57.17;98658.88;7312431;19;130305;-40
2023/03/27 05:21:37;;;;;;;;;;;;;;;22.41;57.21;98666.72;7312974;19;129205;-41
2023/03/27 05:24:02;;;;;;;;;;;;;;;22.46;57.19;98668.88;7311100;19;129129;-41
2023/03/27 05:26:28;;;;;;;;;;;;;;;22.43;57.27;98679.69;7311539;19;129861;-41
2023/03/27 05:28:54;;;;;;;;;;;;;;;22.40;57.03;98683.44;7307931;19;129170;-40
2023/03/27 05:31:21;;;;;;;;;;;;;;;22.26;57.00;98668.41;7314823;19;130945;-42
2023/03/27 05:33:46;;;;;;;;;;;;;;;22.38;57.40;98689.84;7307727;19;133130;-41
2023/03/27 05:36:14;;;;;;;;;;;;;;;22.43;57.53;98690.16;7311280;19;129151;-40
2023/03/27 05:38:40;;;;;;;;;;;;;;;22.58;57.28;98694.56;7305102;19;129643;-40
2023/03/27 05:41:06;;;;;;;;;;;;;;;22.73;56.72;98697.28;7311286;19;129046;-40
2023/03/27 05:43:32;;;;;;;;;;;;;;;22.77;55.97;98675.03;7311719;19;129053;-38
2023/03/27 05:45:58;;;;;;;;;;;;;;;23.04;55.74;98700.78;7307243;19;130174;-41
2023/03/27 05:48:23;;;;;;;;;;;;;;;23.16;55.59;98699.44;7311654;19;129570;-40
2023/03/27 05:50:49;;;;;;;;;;;;;;;23.31;54.55;98704.78;7313700;19;129393;-41
2023/03/27 05:53:14;;;;;;;;;;;;;;;23.41;54.59;98708.84;7312388;19;129056;-41
2023/03/27 05:55:43;;;;;;;;;;;;;;;23.47;54.37;98712.59;7311648;19;130371;-40
2023/03/27 05:58:10;;;;;;;;;;;;;;;23.42;52.91;98720.16;7305124;19;130086;-40
2023/03/27 06:00:37;;;;;;;;;;;;;;;23.30;51.71;98714.47;7309780;19;129855;-40
2023/03/27 06:03:03;;;;;;;;;;;;;;;23.20;51.20;98726.94;7312680;19;129550;-40
2023/03/27 06:05:28;;;;;;;;;;;;;;;23.11;52.00;98733.22;7311036;19;129365;-40
2023/03/27 06:07:57;;;;;;;;;;;;;;;23.10;51.92;98736.81;7306880;19;129271;-40
2023/03/27 06:10:25;;;;;;;;;;;;;;;23.09;52.96;98745.66;7312192;19;130595;-41
2023/03/27 06:12:59;;;;;;;;;;;;;;;23.13;52.71;98753.03;7310356;19;129539;-41
2023/03/27 06:15:25;;;;;;;;;;;;;;;23.06;53.01;98761.72;7311095;19;129092;-40
2023/03/27 06:17:50;;;;;;;;;;;;;;;22.99;53.78;98763.41;7309083;19;129329;-41
2023/03/27 06:20:16;;;;;;;;;;;;;;;22.88;54.41;98774.25;7312695;19;129561;-41
2023/03/27 06:22:49;;;;;;;;;;;;;;;22.78;54.51;98765.75;7311758;19;129469;-40
2023/03/27 06:25:15;;;;;;;;;;;;;;;22.70;54.71;98771.84;7311288;19;129003;-40
2023/03/27 06:27:42;;;;;;;;;;;;;;;22.71;54.87;98783.16;7309339;19;129226;-40
2023/03/27 06:30:09;;;;;;;;;;;;;;;22.77;54.76;98787.72;7312336;19;128836;-41
2023/03/27 06:32:35;;;;;;;;;;;;;;;22.87;54.11;98789.13;7310049;19;129633;-41
2023/03/27 06:35:01;;;;;;;;;;;;;;;23.03;53.98;98794.38;7313379;19;129435;-41
2023/03/27 06:37:27;;;;;;;;;;;;;;;23.18;54.13;98794.47;7309559;19;129231;-42
2023/03/27 06:39:53;;;;;;;;;;;;;;;23.35;53.76;98803.97;7312407;19;128982;-42
2023/03/27 06:42:22;;;;;;;;;;;;;;;23.42;52.73;98798.84;7311325;19;130256;-41
2023/03/27 06:44:47;;;;;;;;;;;;;;;23.50;52.67;98797.03;7311149;19;129416;-40
2023/03/27 06:47:13;;;;;;;;;;;;;;;23.39;52.75;98797.38;7310000;19;129597;-42
2023/03/27 06:49:38;;;;;;;;;;;;;;;23.48;52.89;98809.47;7311371;19;129764;-42
2023/03/27 06:52:04;;;;;;;;;;;;;;;23.41;53.02;98820.81;7310200;19;129640;-40
2023/03/27 06:54:30;;;;;;;;;;;;;;;23.31;53.22;98828.88;7311141;19;130068;-41
2023/03/27 06:57:00;;;;;;;;;;;;;;;23.11;53.45;98817.09;7311470;19;129584;-42
2023/03/27 06:59:25;;;;;;;;;;;;;;;23.09;54.54;98842.66;7311552;19;129433;-42
2023/03/27 07:01:51;;;;;;;;;;;;;;;22.96;54.88;98839.75;7310346;19;128900;-41
2023/03/27 07:04:16;;;;;;;;;;;;;;;22.80;54.36;98839.78;7309912;19;130534;-40
2023/03/27 07:06:42;;;;;;;;;;;;;;;22.66;53.26;98838.63;7308439;19;129622;-41
2023/03/27 07:09:10;;;;;;;;;;;;;;;22.52;53.00;98814.88;7309327;19;129069;-41
2023/03/27 07:11:35;;;;;;;;;;;;;;;22.68;52.85;98851.56;7313576;19;129303;-42
2023/03/27 07:14:01;;;;;;;;;;;;;;;22.77;52.70;98855.84;7317608;19;129472;-40
2023/03/27 07:16:27;;;;;;;;;;;;;;;22.87;52.47;98856.50;7313362;19;129518;-42
2023/03/27 07:18:52;;;;;;;;;;;;;;;23.02;51.82;98857.47;7314914;19;129376;-42
2023/03/27 07:21:18;;;;;;;;;;;;;;;23.11;51.74;98861.69;7316969;19;129225;-41
2023/03/27 07:23:46;;;;;;;;;;;;;;;23.22;50.62;98866.59;7316947;19;129083;-41
2023/03/27 07:26:14;;;;;;;;;;;;;;;23.29;50.25;98880.69;7315952;19;129693;-41
2023/03/27 07:28:41;;;;;;;;;;;;;;;23.29;49.98;98874.66;7312504;19;129344;-42
2023/03/27 07:31:10;;;;;;;;;;;;;;;23.25;50.63;98895.09;7315208;19;128913;-40
2023/03/27 07:33:37;;;;;;;;;;;;;;;23.18;50.38;98896.75;7313095;19;130768;-40
2023/03/27 07:36:05;;;;;;;;;;;;;;;23.11;50.28;98901.00;7316574;19;129399;-42
2023/03/27 07:38:31;;;;;;;;;;;;;;;22.97;50.72;98893.84;7313627;19;131006;-41
2023/03/27 07:40:56;;;;;;;;;;;;;;;22.87;51.54;98904.47;7313608;19;130363;-41
2023/03/27 07:43:21;;;;;;;;;;;;;;;22.73;51.64;98896.44;7313231;19;129045;-39
2023/03/27 07:45:48;;;;;;;;;;;;;;;22.57;51.90;98886.81;7315115;19;129490;-41
2023/03/27 07:48:14;;;;;;;;;;;;;;;22.48;51.88;98884.28;7308744;19;128926;-41
2023/03/27 07:50:41;;;;;;;;;;;;;;;22.45;52.15;98889.84;7313055;19;130682;-41
2023/03/27 07:53:06;;;;;;;;;;;;;;;22.60;52.17;98906.59;7315459;19;129491;-40
2023/03/27 07:55:33;;;;;;;;;;;;;;;22.67;52.21;98907.59;7313780;19;130609;-41
2023/03/27 07:57:59;;;;;;;;;;;;;;;22.79;52.02;98916.78;7310855;19;129578;-42
2023/03/27 08:00:24;;;;;;;;;;;;;;;22.95;51.48;98922.00;7313927;19;129798;-40
2023/03/27 08:02:50;;;;;;;;;;;;;;;22.97;51.63;98899.88;7315648;19;129602;-41
2023/03/27 08:05:16;;;;;;;;;;;;;;;23.22;51.08;98924.28;7316080;19;129167;-40
2023/03/27 08:07:44;;;;;;;;;;;;;;;23.41;50.95;98921.31;7314027;19;129265;-40
2023/03/27 08:10:10;;;;;;;;;;;;;;;23.48;50.50;98917.06;7316067;19;128928;-40
2023/03/27 08:12:36;;;;;;;;;;;;;;;23.49;50.95;98930.97;7315040;19;129057;-40
2023/03/27 08:15:04;;;;;;;;;;;;;;;23.45;50.59;98935.75;7314308;19;129136;-40
2023/03/27 08:17:31;;;;;;;;;;;;;;;23.35;51.25;98932.50;7305333;19;129838;-40
2023/03/27 08:20:00;;;;;;;;;;;;;;;23.24;52.12;98938.88;7315257;19;128953;-40
2023/03/27 08:22:27;;;;;;;;;;;;;;;23.17;52.42;98937.09;7315439;19;129837;-41
2023/03/27 08:24:52;;;;;;;;;;;;;;;23.07;52.61;98942.47;7314482;19;129498;-40
2023/03/27 08:27:18;;;;;;;;;;;;;;;22.98;53.04;98953.13;7309786;19;130790;-40
2023/03/27 08:29:44;;;;;;;;;;;;;;;22.86;52.63;98949.19;7311582;19;130017;-41
2023/03/27 08:32:09;;;;;;;;;;;;;;;22.75;51.71;98942.50;7315288;19;131165;-41
2023/03/27 08:34:39;;;;;;;;;;;;;;;22.67;52.72;98944.28;7314764;19;131190;-40
2023/03/27 08:37:05;;;;;;;;;;;;;;;22.73;53.04;98952.31;7313141;19;130106;-41
2023/03/27 08:39:33;;;;;;;;;;;;;;;22.83;52.30;98944.28;7314345;19;129542;-42
2023/03/27 08:42:01;;;;;;;;;;;;;;;23.02;52.00;98962.31;7313982;19;129132;-40
2023/03/27 08:44:28;;;;;;;;;;;;;;;23.17;51.63;98960.69;7315246;19;129223;-40
2023/03/27 08:47:01;;;;;;;;;;;;;;;23.37;51.17;98963.81;7312694;19;129441;-40
2023/03/27 08:49:30;;;;;;;;;;;;;;;23.45;51.56;98969.88;7315322;19;129321;-41
2023/03/27 08:52:00;;;;;;;;;;;;;;;23.50;50.87;98964.94;7314667;19;129637;-40
2023/03/27 08:54:30;;;;;;;;;;;;;;;23.50;51.60;98972.81;7315659;19;129153;-40
2023/03/27 08:56:56;;;;;;;;;;;;;;;23.47;51.75;98970.50;7312821;19;130147;-40
2023/03/27 08:59:23;;;;;;;;;;;;;;;23.35;51.55;98961.34;7315453;19;128771;-40
2023/03/27 09:01:53;;;;;;;;;;;;;;;23.27;51.97;98966.59;7314230;19;129363;-42
2023/03/27 09:04:31;;;;;;;;;;;;;;;23.16;52.63;98969.53;7314638;19;129343;-40
2023/03/27 09:07:22;;;;;;;;;;;;;;;23.02;52.73;98963.13;7312992;19;128961;-40
2023/03/27 09:09:58;;;;;;;;;;;;;;;22.91;53.39;98967.88;7315132;19;129299;-42
2023/03/27 09:12:30;;;;;;;;;;;;;;;22.81;53.62;98968.03;7314500;19;129450;-41
2023/03/27 09:14:58;;;;;;;;;;;;;;;22.70;53.40;98972.78;7313560;19;130717;-41
2023/03/27 09:17:29;;;;;;;;;;;;;;;22.59;54.28;98962.63;7311831;19;129416;-40
2023/03/27 09:19:57;;;;;;;;;;;;;;;22.38;54.23;98954.34;7314645;19;129356;-41
2023/03/27 09:22:26;;;;;;;;;;;;;;;22.51;54.07;98971.22;7313865;19;129618;-41
2023/03/27 09:24:53;;;;;;;;;;;;;;;22.49;54.13;98961.91;7313683;19;129140;-41
2023/03/27 09:27:19;;;;;;;;;;;;;;;22.71;54.01;98983.09;7310920;19;128939;-41
2023/03/27 09:29:52;;;;;;;;;;;;;;;22.93;53.81;98981.63;7314351;19;129460;-41
2023/03/27 09:32:18;;;;;;;;;;;;;;;23.08;52.79;98985.25;7312476;19;129439;-41
2023/03/27 09:34:44;;;;;;;;;;;;;;;23.25;52.95;98997.41;7312234;19;129605;-42
2023/03/27 09:37:12;;;;;;;;;;;;;;;23.37;52.00;98995.28;7311320;19;130262;-42
2023/03/27 09:39:40;;;;;;;;;;;;;;;23.40;51.85;99003.66;7313711;19;129216;-40
2023/03/27 09:42:10;;;;;;;;;;;;;;;23.39;51.70;99009.84;7313583;19;129597;-41
2023/03/27 09:44:38;;;;;;;;;;;;;;;23.31;52.58;98999.38;7313567;19;130331;-42
2023/03/27 09:47:10;;;;;;;;;;;;;;;23.24;52.77;99007.06;7311734;19;129535;-42
2023/03/27 09:49:37;;;;;;;;;;;;;;;23.15;52.68;99023.75;7312807;19;129260;-41
2023/03/27 09:52:04;;;;;;;;;;;;;;;23.06;53.28;99021.31;7312047;19;129344;-42
2023/03/27 09:54:48;;;;;;;;;;;;;;;22.95;53.12;99016.38;7313358;19;129384;-41
2023/03/27 09:57:13;;;;;;;;;;;;;;;22.84;53.95;99029.81;7311920;19;128907;-40
2023/03/27 09:59:53;;;;;;;;;;;;;;;22.74;53.70;99016.03;7313318;19;128813;-41
2023/03/27 10:02:23;;;;;;;;;;;;;;;22.63;54.32;99024.19;7312026;19;129042;-41
2023/03/27 10:05:03;;;;;;;;;;;;;;;22.54;54.54;99019.91;7312351;19;129481;-42
2023/03/27 10:07:29;;;;;;;;;;;;;;;22.50;54.43;99021.16;7310352;19;130273;-42
2023/03/27 10:10:02;;;;;;;;;;;;;;;22.53;54.80;99018.25;7312016;19;129122;-41
2023/03/27 10:12:27;;;;;;;;;;;;;;;;;;7313852;19;130069;-42
2023/03/27 10:14:53;;;;;;;;;;;;;;;22.84;53.86;99024.56;7312633;19;130403;-41
2023/03/27 10:17:23;;;;;;;;;;;;;;;23.04;53.49;99036.38;7312207;19;130222;-40
2023/03/27 10:19:51;;;;;;;;;;;;;;;23.10;53.45;99020.84;7311139;19;129276;-41
2023/03/27 10:22:27;;;;;;;;;;;;;;;23.28;52.81;99044.31;7310261;19;130172;-42
2023/03/27 10:24:57;;;;;;;;;;;;;;;23.26;52.79;99046.22;7310326;19;130571;-41
2023/03/27 10:27:25;;;;;;;;;;;;;;;23.18;52.67;99040.97;7310385;19;128940;-40
2023/03/27 10:29:50;;;;;;;;;;;;;;;23.17;53.48;99041.97;7312330;19;128989;-40
2023/03/27 10:32:16;;;;;;;;;;;;;;;23.11;53.16;99045.22;7311723;19;129346;-41
2023/03/27 10:34:45;;;;;;;;;;;;;;;22.87;53.44;99024.25;7310097;19;130121;-40
2023/03/27 10:37:19;;;;;;;;;;;;;;;22.92;53.78;99053.41;7311602;19;128966;-42
2023/03/27 10:39:45;;;;;;;;;;;;;;;22.82;54.33;99058.81;7312131;19;129332;-41
2023/03/27 10:42:12;;;;;;;;;;;;;;;22.71;54.38;99059.09;7311975;19;129157;-40
2023/03/27 10:44:40;;;;;;;;;;;;;;;22.62;54.26;99059.22;7314701;19;130229;-40
2023/03/27 10:47:14;;;;;;;;;;;;;;;22.51;55.15;99065.53;7317923;19;129090;-40
2023/03/27 10:49:43;;;;;;;;;;;;;;;22.50;55.11;99063.06;7318772;19;128996;-42
2023/03/27 10:52:13;;;;;;;;;;;;;;;22.53;55.07;99068.03;7317961;19;129429;-40
2023/03/27 10:54:41;;;;;;;;;;;;;;;22.62;55.08;99067.09;7317095;19;129917;-40
2023/03/27 10:57:12;;;;;;;;;;;;;;;22.77;54.79;99063.72;7319442;19;129726;-42
2023/03/27 10:59:45;;;;;;;;;;;;;;;22.97;53.95;99061.63;7317796;19;129519;-41
2023/03/27 11:02:14;;;;;;;;;;;;;;;23.17;53.63;99069.00;7318410;19;129591;-41
2023/03/27 11:04:49;;;;;;;;;;;;;;;23.33;52.54;99073.47;7316372;19;131123;-41
2023/03/27 11:07:36;;;;;;;;;;;;;;;23.29;52.94;99048.56;7317626;19;128984;-40
2023/03/27 11:10:20;;;;;;;;;;;;;;;23.40;52.46;99079.72;7317499;19;128844;-40
2023/03/27 11:12:51;;;;;;;;;;;;;;;23.35;52.64;99076.78;7317160;19;130067;-39
2023/03/27 11:15:21;;;;;;;;;;;;;;;23.26;53.21;99077.69;7318022;19;129311;-41
2023/03/27 11:18:00;;;;;;;;;;;;;;;23.16;53.43;99085.72;7317008;19;128930;-40
2023/03/27 11:20:29;;;;;;;;;;;;;;;23.09;53.16;99097.00;7317353;19;129182;-40
2023/03/27 11:22:58;;;;;;;;;;;;;;;22.97;54.01;99082.59;7316954;19;129978;-40
2023/03/27 11:25:30;;;;;;;;;;;;;;;22.86;54.03;99088.13;7316769;19;129305;-41
2023/03/27 11:28:14;;;;;;;;;;;;;;;22.77;54.36;99092.53;7317220;19;129235;-41
2023/03/27 11:30:45;;;;;;;;;;;;;;;22.65;54.33;99092.97;7318264;19;129112;-42
2023/03/27 11:33:23;;;;;;;;;;;;;;;22.59;54.51;99093.59;7315890;19;129176;-40
2023/03/27 11:35:52;;;;;;;;;;;;;;;22.39;54.94;99073.84;7317549;19;129353;-42
2023/03/27 11:38:20;;;;;;;;;;;;;;;22.51;55.45;99106.66;7314954;19;128870;-42
2023/03/27 11:40:46;;;;;;;;;;;;;;;22.63;54.91;99100.16;7317199;19;129595;-41
2023/03/27 11:43:13;;;;;;;;;;;;;;;22.70;54.40;99090.69;7316197;19;128968;-41
2023/03/27 11:45:59;;;;;;;;;;;;;;;23.00;53.77;99108.47;7316249;19;129175;-41
2023/03/27 11:48:45;;;;;;;;;;;;;;;23.17;53.70;99115.41;7312262;19;129006;-41
2023/03/27 11:51:22;;;;;;;;;;;;;;;23.36;53.16;99109.88;7314353;19;130580;-41
2023/03/27 11:53:51;;;;;;;;;;;;;;;23.25;52.62;99081.31;7315591;19;130085;-40
2023/03/27 11:56:30;;;;;;;;;;;;;;;23.41;52.92;99112.00;7315169;19;129347;-42
2023/03/27 11:59:31;;;;;;;;;;;;;;;23.36;52.79;99124.78;7314748;19;128959;-41
2023/03/27 12:02:15;;;;;;;;;;;;;;;23.23;52.94;99115.59;7312675;19;129204;-42
2023/03/27 12:04:43;;;;;;;;;;;;;;;23.14;52.92;99115.69;7314454;19;129051;-42
2023/03/27 12:07:21;;;;;;;;;;;;;;;22.97;53.29;99088.63;7316099;19;129156;-41
2023/03/27 12:09:58;;;;;;;;;;;;;;;22.90;54.13;99102.56;7316302;19;129721;-40
2023/03/27 12:12:38;;;;;;;;;;;;;;;22.86;53.97;99111.69;7315681;19;129526;-40
2023/03/27 12:15:12;;;;;;;;;;;;;;;22.74;54.06;99123.47;7316563;19;129428;-41
2023/03/27 12:17:56;;;;;;;;;;;;;;;22.64;54.67;99117.53;7315016;19;129254;-41
2023/03/27 12:20:36;;;;;;;;;;;;;;;22.54;54.88;99116.84;7316442;19;128916;-40
2023/03/27 12:23:07;;;;;;;;;;;;;;;22.45;55.19;99118.56;7315074;19;128915;-41
2023/03/27 12:25:46;;;;;;;;;;;;;;;22.35;55.12;99112.63;7315825;19;129268;-41
2023/03/27 12:28:21;;;;;;;;;;;;;;;22.40;55.88;99120.00;7312485;19;130470;-41
2023/03/27 12:30:46;;;;;;;;;;;;;;;22.45;55.32;99122.97;7316493;19;128894;-40
2023/03/27 12:33:12;;;;;;;;;;;;;;;22.60;55.03;99129.31;7312771;19;130619;-41
2023/03/27 12:35:43;;;;;;;;;;;;;;;22.80;54.25;99125.47;7314231;19;128976;-41
2023/03/27 12:38:29;;;;;;;;;;;;;;;23.02;53.72;99128.28;7313038;19;129542;-40
2023/03/27 12:41:12;;;;;;;;;;;;;;;23.22;53.39;99121.78;7316007;19;129563;-41
2023/03/27 12:43:42;;;;;;;;;;;;;;;23.29;52.84;99127.25;7313853;19;129107;-40
2023/03/27 12:46:23;;;;;;;;;;;;;;;23.29;53.14;99118.56;7316411;19;129833;-41
2023/03/27 12:48:48;;;;;;;;;;;;;;;23.22;53.17;99113.91;7310037;19;130731;-40